sensor_id;sensor_type;location;lat;lon;timestamp;P1;durP1;ratioP1;P2;durP2;ratioP2
23476;SDS011;11911;50.768;13.150;2022-09-03T04:01:34;10.30;;;2.00;;
23476;SDS011;11911;50.768;13.150;2022-09-03T04:04:00;1.97;;;1.40;;
23476;SDS011;11911;50.768;13.150;2022-09-03T04:06:25;4.70;;;1.50;;
23476;SDS011;11911;50.768;13.150;2022-09-03T04:08:51;1.83;;;1.27;;
23476;SDS011;11911;50.768;13.150;2022-09-03T04:11:18;2.27;;;1.30;;
23476;SDS011;11911;50.768;13.150;2022-09-03T04:13:46;2.70;;;1.10;;
23476;SDS011;11911;50.768;13.150;2022-09-03T04:16:16;2.60;;;1.40;;
23476;SDS011;11911;50.768;13.150;2022-09-03T04:18:43;2.20;;;1.70;;
23476;SDS011;11911;50.768;13.150;2022-09-03T04:26:26;2.50;;;1.37;;
23476;SDS011;11911;50.768;13.150;2022-09-03T04:28:57;3.83;;;1.30;;
23476;SDS011;11911;50.768;13.150;2022-09-03T04:31:24;1.80;;;1.20;;
23476;SDS011;11911;50.768;13.150;2022-09-03T04:33:50;2.93;;;1.50;;
23476;SDS011;11911;50.768;13.150;2022-09-03T04:36:17;3.00;;;1.63;;
23476;SDS011;11911;50.768;13.150;2022-09-03T04:38:45;1.97;;;1.43;;
23476;SDS011;11911;50.768;13.150;2022-09-03T04:41:12;2.20;;;1.17;;
23476;SDS011;11911;50.768;13.150;2022-09-03T04:43:40;3.70;;;2.00;;
23476;SDS011;11911;50.768;13.150;2022-09-03T04:46:07;4.77;;;1.50;;
23476;SDS011;11911;50.768;13.150;2022-09-03T04:48:34;4.50;;;1.10;;
23476;SDS011;11911;50.768;13.150;2022-09-03T04:51:01;1.67;;;1.40;;
23476;SDS011;11911;50.768;13.150;2022-09-03T04:53:30;2.07;;;1.33;;
23476;SDS011;11911;50.768;13.150;2022-09-03T04:55:56;3.80;;;1.50;;
23476;SDS011;11911;50.768;13.150;2022-09-03T04:58:21;1.43;;;1.00;;
23476;SDS011;11911;50.768;13.150;2022-09-03T05:00:47;3.43;;;1.37;;
23476;SDS011;11911;50.768;13.150;2022-09-03T05:03:13;3.63;;;1.20;;
23476;SDS011;11911;50.768;13.150;2022-09-03T05:05:38;1.80;;;1.30;;
23476;SDS011;11911;50.768;13.150;2022-09-03T05:08:03;2.07;;;1.50;;
23476;SDS011;11911;50.768;13.150;2022-09-03T05:10:30;3.10;;;1.60;;
23476;SDS011;11911;50.768;13.150;2022-09-03T05:13:05;2.37;;;1.43;;
23476;SDS011;11911;50.768;13.150;2022-09-03T05:15:30;3.63;;;1.40;;
23476;SDS011;11911;50.768;13.150;2022-09-03T05:17:59;2.63;;;1.40;;
23476;SDS011;11911;50.768;13.150;2022-09-03T05:20:26;1.93;;;1.40;;
23476;SDS011;11911;50.768;13.150;2022-09-03T05:22:54;2.20;;;1.30;;
23476;SDS011;11911;50.768;13.150;2022-09-03T05:25:20;1.27;;;1.10;;
23476;SDS011;11911;50.768;13.150;2022-09-03T05:27:46;2.27;;;1.00;;
23476;SDS011;11911;50.768;13.150;2022-09-03T05:30:12;1.73;;;1.00;;
23476;SDS011;11911;50.768;13.150;2022-09-03T05:32:38;7.33;;;1.30;;
23476;SDS011;11911;50.768;13.150;2022-09-03T05:35:04;2.83;;;1.60;;
23476;SDS011;11911;50.768;13.150;2022-09-03T05:37:30;3.47;;;1.20;;
23476;SDS011;11911;50.768;13.150;2022-09-03T05:39:56;2.17;;;1.10;;
23476;SDS011;11911;50.768;13.150;2022-09-03T05:42:21;2.27;;;1.37;;
23476;SDS011;11911;50.768;13.150;2022-09-03T05:44:47;2.10;;;1.23;;
23476;SDS011;11911;50.768;13.150;2022-09-03T05:47:13;1.87;;;1.50;;
23476;SDS011;11911;50.768;13.150;2022-09-03T05:49:39;3.83;;;1.50;;
23476;SDS011;11911;50.768;13.150;2022-09-03T05:52:05;1.73;;;1.53;;
23476;SDS011;11911;50.768;13.150;2022-09-03T05:54:30;3.90;;;1.70;;
23476;SDS011;11911;50.768;13.150;2022-09-03T05:56:56;2.73;;;1.17;;
23476;SDS011;11911;50.768;13.150;2022-09-03T05:59:22;2.17;;;1.20;;
23476;SDS011;11911;50.768;13.150;2022-09-03T06:01:47;5.33;;;1.40;;
23476;SDS011;11911;50.768;13.150;2022-09-03T06:04:14;2.50;;;1.40;;
23476;SDS011;11911;50.768;13.150;2022-09-03T06:06:44;2.30;;;1.40;;
23476;SDS011;11911;50.768;13.150;2022-09-03T06:09:12;1.50;;;1.10;;
23476;SDS011;11911;50.768;13.150;2022-09-03T06:11:40;4.30;;;1.03;;
23476;SDS011;11911;50.768;13.150;2022-09-03T06:14:07;3.13;;;1.20;;
23476;SDS011;11911;50.768;13.150;2022-09-03T06:16:37;1.93;;;1.33;;
23476;SDS011;11911;50.768;13.150;2022-09-03T06:19:05;2.60;;;1.30;;
23476;SDS011;11911;50.768;13.150;2022-09-03T06:21:33;2.03;;;1.23;;
23476;SDS011;11911;50.768;13.150;2022-09-03T06:23:59;3.67;;;1.50;;
23476;SDS011;11911;50.768;13.150;2022-09-03T06:26:25;7.53;;;1.43;;
23476;SDS011;11911;50.768;13.150;2022-09-03T06:28:55;2.67;;;2.17;;
23476;SDS011;11911;50.768;13.150;2022-09-03T06:31:21;4.30;;;1.53;;
23476;SDS011;11911;50.768;13.150;2022-09-03T06:33:47;3.20;;;1.77;;
23476;SDS011;11911;50.768;13.150;2022-09-03T06:36:16;8.80;;;2.50;;
23476;SDS011;11911;50.768;13.150;2022-09-03T06:38:43;3.43;;;1.60;;
23476;SDS011;11911;50.768;13.150;2022-09-03T06:41:12;2.90;;;1.57;;
23476;SDS011;11911;50.768;13.150;2022-09-03T06:43:49;5.60;;;1.33;;
23476;SDS011;11911;50.768;13.150;2022-09-03T06:46:18;2.50;;;1.50;;
23476;SDS011;11911;50.768;13.150;2022-09-03T06:48:45;2.50;;;1.37;;
23476;SDS011;11911;50.768;13.150;2022-09-03T06:51:12;1.53;;;1.20;;
23476;SDS011;11911;50.768;13.150;2022-09-03T06:53:43;1.70;;;1.40;;
23476;SDS011;11911;50.768;13.150;2022-09-03T06:56:15;2.03;;;1.40;;
23476;SDS011;11911;50.768;13.150;2022-09-03T06:58:46;1.57;;;1.40;;
23476;SDS011;11911;50.768;13.150;2022-09-03T07:01:16;4.60;;;1.50;;
23476;SDS011;11911;50.768;13.150;2022-09-03T07:03:43;4.20;;;1.30;;
23476;SDS011;11911;50.768;13.150;2022-09-03T07:06:14;2.17;;;1.23;;
23476;SDS011;11911;50.768;13.150;2022-09-03T07:08:41;7.90;;;1.30;;
23476;SDS011;11911;50.768;13.150;2022-09-03T07:11:09;4.10;;;1.40;;
23476;SDS011;11911;50.768;13.150;2022-09-03T07:13:36;2.50;;;1.90;;
23476;SDS011;11911;50.768;13.150;2022-09-03T07:16:05;7.33;;;1.70;;
23476;SDS011;11911;50.768;13.150;2022-09-03T07:18:32;3.20;;;1.50;;
23476;SDS011;11911;50.768;13.150;2022-09-03T07:20:59;1.97;;;1.33;;
23476;SDS011;11911;50.768;13.150;2022-09-03T07:23:27;2.50;;;1.50;;
23476;SDS011;11911;50.768;13.150;2022-09-03T07:25:57;1.93;;;1.70;;
23476;SDS011;11911;50.768;13.150;2022-09-03T07:28:24;2.37;;;1.20;;
23476;SDS011;11911;50.768;13.150;2022-09-03T07:30:51;9.93;;;1.50;;
23476;SDS011;11911;50.768;13.150;2022-09-03T07:33:17;3.90;;;1.60;;
23476;SDS011;11911;50.768;13.150;2022-09-03T07:35:43;3.93;;;1.50;;
23476;SDS011;11911;50.768;13.150;2022-09-03T07:38:09;1.37;;;1.20;;
23476;SDS011;11911;50.768;13.150;2022-09-03T07:40:36;6.97;;;1.33;;
23476;SDS011;11911;50.768;13.150;2022-09-03T07:43:03;1.90;;;1.37;;
23476;SDS011;11911;50.768;13.150;2022-09-03T07:45:29;6.60;;;1.70;;
23476;SDS011;11911;50.768;13.150;2022-09-03T07:47:56;2.60;;;1.40;;
23476;SDS011;11911;50.768;13.150;2022-09-03T07:50:22;2.93;;;1.70;;
23476;SDS011;11911;50.768;13.150;2022-09-03T07:52:48;3.67;;;1.40;;
23476;SDS011;11911;50.768;13.150;2022-09-03T07:55:13;2.97;;;1.40;;
23476;SDS011;11911;50.768;13.150;2022-09-03T07:57:39;5.67;;;1.20;;
23476;SDS011;11911;50.768;13.150;2022-09-03T08:00:05;4.70;;;1.40;;
23476;SDS011;11911;50.768;13.150;2022-09-03T08:02:36;1.90;;;1.00;;
23476;SDS011;11911;50.768;13.150;2022-09-03T08:05:02;2.43;;;1.50;;
23476;SDS011;11911;50.768;13.150;2022-09-03T08:07:28;4.13;;;1.50;;
23476;SDS011;11911;50.768;13.150;2022-09-03T08:09:54;3.70;;;1.60;;
23476;SDS011;11911;50.768;13.150;2022-09-03T08:12:20;2.90;;;1.40;;
23476;SDS011;11911;50.768;13.150;2022-09-03T08:14:45;2.30;;;1.10;;
23476;SDS011;11911;50.768;13.150;2022-09-03T08:17:12;2.67;;;1.33;;
23476;SDS011;11911;50.768;13.150;2022-09-03T08:19:37;1.53;;;1.30;;
23476;SDS011;11911;50.768;13.150;2022-09-03T08:22:04;2.83;;;1.60;;
23476;SDS011;11911;50.768;13.150;2022-09-03T08:24:30;2.50;;;1.23;;
23476;SDS011;11911;50.768;13.150;2022-09-03T08:26:58;1.73;;;1.30;;
23476;SDS011;11911;50.768;13.150;2022-09-03T08:29:24;1.97;;;1.20;;
23476;SDS011;11911;50.768;13.150;2022-09-03T08:31:51;2.77;;;1.10;;
23476;SDS011;11911;50.768;13.150;2022-09-03T08:34:17;3.93;;;1.73;;
23476;SDS011;11911;50.768;13.150;2022-09-03T08:36:43;5.33;;;1.70;;
23476;SDS011;11911;50.768;13.150;2022-09-03T08:39:10;1.63;;;1.20;;
23476;SDS011;11911;50.768;13.150;2022-09-03T08:49:30;3.97;;;1.50;;
23476;SDS011;11911;50.768;13.150;2022-09-03T08:55:13;6.60;;;1.40;;
23476;SDS011;11911;50.768;13.150;2022-09-03T08:57:47;2.00;;;1.30;;
23476;SDS011;11911;50.768;13.150;2022-09-03T09:03:40;2.37;;;1.20;;
23476;SDS011;11911;50.768;13.150;2022-09-03T09:06:25;4.03;;;1.57;;
23476;SDS011;11911;50.768;13.150;2022-09-03T09:11:46;3.30;;;1.33;;
23476;SDS011;11911;50.768;13.150;2022-09-03T09:14:44;1.67;;;1.20;;
23476;SDS011;11911;50.768;13.150;2022-09-03T09:22:54;2.23;;;1.50;;
23476;SDS011;11911;50.768;13.150;2022-09-03T09:25:27;2.43;;;1.53;;
23476;SDS011;11911;50.768;13.150;2022-09-03T09:28:07;2.03;;;1.27;;
23476;SDS011;11911;50.768;13.150;2022-09-03T09:30:46;2.27;;;1.27;;
23476;SDS011;11911;50.768;13.150;2022-09-03T09:33:13;2.30;;;1.43;;
23476;SDS011;11911;50.768;13.150;2022-09-03T09:35:40;2.07;;;1.30;;
23476;SDS011;11911;50.768;13.150;2022-09-03T09:38:07;3.10;;;1.63;;
23476;SDS011;11911;50.768;13.150;2022-09-03T09:40:35;2.60;;;1.50;;
23476;SDS011;11911;50.768;13.150;2022-09-03T09:43:12;3.40;;;1.10;;
23476;SDS011;11911;50.768;13.150;2022-09-03T09:45:45;2.70;;;1.30;;
23476;SDS011;11911;50.768;13.150;2022-09-03T09:48:22;3.10;;;1.47;;
23476;SDS011;11911;50.768;13.150;2022-09-03T09:51:04;2.03;;;1.33;;
23476;SDS011;11911;50.768;13.150;2022-09-03T09:53:35;1.60;;;1.00;;
23476;SDS011;11911;50.768;13.150;2022-09-03T09:56:00;3.27;;;1.60;;
23476;SDS011;11911;50.768;13.150;2022-09-03T09:58:27;2.00;;;1.17;;
23476;SDS011;11911;50.768;13.150;2022-09-03T10:00:59;2.80;;;1.17;;
23476;SDS011;11911;50.768;13.150;2022-09-03T10:03:38;3.00;;;1.37;;
23476;SDS011;11911;50.768;13.150;2022-09-03T10:06:12;2.93;;;1.20;;
23476;SDS011;11911;50.768;13.150;2022-09-03T10:09:31;3.10;;;1.20;;
23476;SDS011;11911;50.768;13.150;2022-09-03T10:14:49;6.77;;;1.50;;
23476;SDS011;11911;50.768;13.150;2022-09-03T10:17:33;4.13;;;1.70;;
23476;SDS011;11911;50.768;13.150;2022-09-03T10:20:06;5.30;;;1.27;;
23476;SDS011;11911;50.768;13.150;2022-09-03T18:06:05;7.00;;;5.10;;
23476;SDS011;11911;50.768;13.150;2022-09-03T18:58:35;2.73;;;2.17;;
23476;SDS011;11911;50.768;13.150;2022-09-03T19:01:38;6.03;;;4.00;;
23476;SDS011;11911;50.768;13.150;2022-09-03T19:07:40;4.90;;;2.57;;
23476;SDS011;11911;50.768;13.150;2022-09-03T19:13:35;3.07;;;2.77;;
23476;SDS011;11911;50.768;13.150;2022-09-03T19:16:24;3.80;;;2.20;;
23476;SDS011;11911;50.768;13.150;2022-09-03T19:19:38;4.60;;;2.70;;
23476;SDS011;11911;50.768;13.150;2022-09-03T19:22:42;7.57;;;2.60;;
23476;SDS011;11911;50.768;13.150;2022-09-03T19:25:27;3.50;;;2.60;;
23476;SDS011;11911;50.768;13.150;2022-09-03T19:28:14;4.03;;;2.50;;
23476;SDS011;11911;50.768;13.150;2022-09-03T19:31:10;3.30;;;2.33;;
23476;SDS011;11911;50.768;13.150;2022-09-03T19:37:11;4.90;;;4.20;;
23476;SDS011;11911;50.768;13.150;2022-09-03T19:46:42;7.87;;;2.97;;
23476;SDS011;11911;50.768;13.150;2022-09-03T19:49:58;6.87;;;3.70;;
23476;SDS011;11911;50.768;13.150;2022-09-03T19:53:05;5.10;;;3.03;;
23476;SDS011;11911;50.768;13.150;2022-09-03T19:55:53;4.63;;;2.10;;
23476;SDS011;11911;50.768;13.150;2022-09-03T19:58:58;2.83;;;2.37;;
23476;SDS011;11911;50.768;13.150;2022-09-03T20:01:45;4.60;;;2.90;;
23476;SDS011;11911;50.768;13.150;2022-09-03T20:04:31;3.53;;;2.40;;
23476;SDS011;11911;50.768;13.150;2022-09-03T20:07:18;3.13;;;2.70;;
23476;SDS011;11911;50.768;13.150;2022-09-03T20:10:04;5.93;;;3.83;;
23476;SDS011;11911;50.768;13.150;2022-09-03T20:12:51;8.07;;;4.17;;
23476;SDS011;11911;50.768;13.150;2022-09-03T20:20:53;4.03;;;2.60;;
23476;SDS011;11911;50.768;13.150;2022-09-03T20:27:00;8.27;;;4.53;;
23476;SDS011;11911;50.768;13.150;2022-09-03T20:35:09;9.23;;;5.97;;
23476;SDS011;11911;50.768;13.150;2022-09-03T20:37:54;8.73;;;6.20;;
23476;SDS011;11911;50.768;13.150;2022-09-03T20:40:44;9.40;;;4.50;;
23476;SDS011;11911;50.768;13.150;2022-09-03T20:51:28;3.50;;;3.03;;
23476;SDS011;11911;50.768;13.150;2022-09-03T20:54:12;7.90;;;4.60;;
23476;SDS011;11911;50.768;13.150;2022-09-03T20:59:29;4.43;;;3.40;;
23476;SDS011;11911;50.768;13.150;2022-09-03T21:02:21;7.23;;;4.23;;
23476;SDS011;11911;50.768;13.150;2022-09-03T21:05:02;10.90;;;4.97;;
23476;SDS011;11911;50.768;13.150;2022-09-03T21:07:47;8.03;;;5.37;;
23476;SDS011;11911;50.768;13.150;2022-09-03T21:10:28;19.13;;;6.90;;
23476;SDS011;11911;50.768;13.150;2022-09-03T21:13:07;12.27;;;6.27;;
23476;SDS011;11911;50.768;13.150;2022-09-03T21:18:51;8.87;;;6.63;;
23476;SDS011;11911;50.768;13.150;2022-09-03T21:21:48;8.57;;;4.87;;
23476;SDS011;11911;50.768;13.150;2022-09-03T21:24:46;6.17;;;3.50;;
23476;SDS011;11911;50.768;13.150;2022-09-03T21:27:20;6.77;;;4.10;;
23476;SDS011;11911;50.768;13.150;2022-09-03T21:29:55;7.93;;;4.00;;
23476;SDS011;11911;50.768;13.150;2022-09-03T21:32:46;3.93;;;3.10;;
23476;SDS011;11911;50.768;13.150;2022-09-03T21:35:35;5.00;;;3.30;;
23476;SDS011;11911;50.768;13.150;2022-09-03T21:38:30;15.37;;;3.57;;
23476;SDS011;11911;50.768;13.150;2022-09-03T21:41:01;5.20;;;3.80;;
23476;SDS011;11911;50.768;13.150;2022-09-03T21:46:20;4.20;;;3.40;;
23476;SDS011;11911;50.768;13.150;2022-09-03T21:49:08;5.50;;;3.30;;
23476;SDS011;11911;50.768;13.150;2022-09-03T21:51:42;12.10;;;3.23;;
23476;SDS011;11911;50.768;13.150;2022-09-03T21:54:27;5.10;;;3.00;;
23476;SDS011;11911;50.768;13.150;2022-09-03T22:02:27;4.10;;;2.90;;
23476;SDS011;11911;50.768;13.150;2022-09-03T22:04:55;4.90;;;2.40;;
23476;SDS011;11911;50.768;13.150;2022-09-03T22:07:25;2.47;;;2.10;;
23476;SDS011;11911;50.768;13.150;2022-09-03T22:12:40;6.30;;;2.17;;
23476;SDS011;11911;50.768;13.150;2022-09-03T22:15:24;4.43;;;2.37;;
23476;SDS011;11911;50.768;13.150;2022-09-03T22:18:04;7.77;;;2.70;;
